sensor_id;sensor_type;location;lat;lon;timestamp;P1;durP1;ratioP1;P2;durP2;ratioP2
14472;SDS011;7322;50.872;4.386;2023-05-14T00:00:27;10.95;;;9.05;;
14472;SDS011;7322;50.872;4.386;2023-05-14T00:02:56;9.88;;;8.88;;
14472;SDS011;7322;50.872;4.386;2023-05-14T00:05:40;9.97;;;8.97;;
14472;SDS011;7322;50.872;4.386;2023-05-14T00:08:08;10.95;;;9.85;;
14472;SDS011;7322;50.872;4.386;2023-05-14T00:10:42;10.18;;;9.18;;
14472;SDS011;7322;50.872;4.386;2023-05-14T00:13:10;11.75;;;10.65;;
14472;SDS011;7322;50.872;4.386;2023-05-14T00:15:39;10.90;;;9.82;;
14472;SDS011;7322;50.872;4.386;2023-05-14T00:18:06;12.25;;;10.60;;
14472;SDS011;7322;50.872;4.386;2023-05-14T00:20:46;11.55;;;10.38;;
14472;SDS011;7322;50.872;4.386;2023-05-14T00:23:23;11.30;;;10.20;;
14472;SDS011;7322;50.872;4.386;2023-05-14T00:25:51;11.75;;;10.32;;
14472;SDS011;7322;50.872;4.386;2023-05-14T00:31:05;11.52;;;9.93;;
14472;SDS011;7322;50.872;4.386;2023-05-14T00:36:26;10.70;;;9.70;;
14472;SDS011;7322;50.872;4.386;2023-05-14T00:38:59;11.82;;;10.60;;
14472;SDS011;7322;50.872;4.386;2023-05-14T00:41:26;11.85;;;9.70;;
14472;SDS011;7322;50.872;4.386;2023-05-14T00:43:54;10.75;;;9.52;;
14472;SDS011;7322;50.872;4.386;2023-05-14T00:46:22;11.73;;;9.90;;
14472;SDS011;7322;50.872;4.386;2023-05-14T00:49:06;12.93;;;9.77;;
14472;SDS011;7322;50.872;4.386;2023-05-14T00:51:34;11.48;;;10.27;;
14472;SDS011;7322;50.872;4.386;2023-05-14T00:59:15;11.23;;;9.98;;
14472;SDS011;7322;50.872;4.386;2023-05-14T01:04:15;12.38;;;10.68;;
14472;SDS011;7322;50.872;4.386;2023-05-14T01:06:49;11.00;;;9.90;;
14472;SDS011;7322;50.872;4.386;2023-05-14T01:14:54;12.30;;;10.97;;
14472;SDS011;7322;50.872;4.386;2023-05-14T01:17:32;12.20;;;9.98;;
14472;SDS011;7322;50.872;4.386;2023-05-14T01:20:17;13.18;;;11.45;;
14472;SDS011;7322;50.872;4.386;2023-05-14T01:22:47;12.40;;;11.10;;
14472;SDS011;7322;50.872;4.386;2023-05-14T01:25:16;13.25;;;11.95;;
14472;SDS011;7322;50.872;4.386;2023-05-14T01:27:56;14.55;;;12.50;;
14472;SDS011;7322;50.872;4.386;2023-05-14T01:30:34;13.60;;;11.60;;
14472;SDS011;7322;50.872;4.386;2023-05-14T01:33:17;12.40;;;11.10;;
14472;SDS011;7322;50.872;4.386;2023-05-14T01:35:47;14.15;;;12.02;;
14472;SDS011;7322;50.872;4.386;2023-05-14T01:41:13;13.32;;;11.93;;
14472;SDS011;7322;50.872;4.386;2023-05-14T01:43:45;14.75;;;11.75;;
14472;SDS011;7322;50.872;4.386;2023-05-14T01:46:16;12.82;;;11.35;;
14472;SDS011;7322;50.872;4.386;2023-05-14T01:48:43;15.02;;;13.43;;
14472;SDS011;7322;50.872;4.386;2023-05-14T01:51:12;14.82;;;12.73;;
14472;SDS011;7322;50.872;4.386;2023-05-14T01:53:45;15.32;;;12.27;;
14472;SDS011;7322;50.872;4.386;2023-05-14T01:56:12;15.80;;;13.23;;
14472;SDS011;7322;50.872;4.386;2023-05-14T01:58:40;13.00;;;11.63;;
14472;SDS011;7322;50.872;4.386;2023-05-14T02:01:07;14.07;;;12.68;;
14472;SDS011;7322;50.872;4.386;2023-05-14T02:03:46;14.52;;;12.88;;
14472;SDS011;7322;50.872;4.386;2023-05-14T02:06:14;14.00;;;12.50;;
14472;SDS011;7322;50.872;4.386;2023-05-14T02:08:46;15.40;;;13.80;;
14472;SDS011;7322;50.872;4.386;2023-05-14T02:11:25;15.07;;;13.02;;
14472;SDS011;7322;50.872;4.386;2023-05-14T02:14:03;14.10;;;12.63;;
14472;SDS011;7322;50.872;4.386;2023-05-14T02:16:30;14.23;;;11.75;;
14472;SDS011;7322;50.872;4.386;2023-05-14T02:19:00;15.45;;;13.88;;
14472;SDS011;7322;50.872;4.386;2023-05-14T02:21:34;14.57;;;12.73;;
14472;SDS011;7322;50.872;4.386;2023-05-14T02:24:04;13.98;;;12.38;;
14472;SDS011;7322;50.872;4.386;2023-05-14T02:26:37;14.13;;;12.68;;
14472;SDS011;7322;50.872;4.386;2023-05-14T02:29:10;13.15;;;11.85;;
14472;SDS011;7322;50.872;4.386;2023-05-14T02:31:45;15.93;;;13.40;;
14472;SDS011;7322;50.872;4.386;2023-05-14T02:37:10;13.55;;;12.05;;
14472;SDS011;7322;50.872;4.386;2023-05-14T02:39:47;14.80;;;13.13;;
14472;SDS011;7322;50.872;4.386;2023-05-14T02:45:00;14.90;;;13.40;;
14472;SDS011;7322;50.872;4.386;2023-05-14T02:50:13;15.20;;;13.68;;
14472;SDS011;7322;50.872;4.386;2023-05-14T02:52:42;16.52;;;13.95;;
14472;SDS011;7322;50.872;4.386;2023-05-14T02:55:12;17.38;;;14.60;;
14472;SDS011;7322;50.872;4.386;2023-05-14T02:57:45;18.50;;;15.02;;
14472;SDS011;7322;50.872;4.386;2023-05-14T03:02:53;14.60;;;13.07;;
14472;SDS011;7322;50.872;4.386;2023-05-14T03:05:20;15.35;;;13.45;;
14472;SDS011;7322;50.872;4.386;2023-05-14T03:07:53;14.85;;;13.25;;
14472;SDS011;7322;50.872;4.386;2023-05-14T03:10:24;16.85;;;14.18;;
14472;SDS011;7322;50.872;4.386;2023-05-14T03:12:52;16.40;;;14.70;;
14472;SDS011;7322;50.872;4.386;2023-05-14T03:15:27;15.03;;;13.43;;
14472;SDS011;7322;50.872;4.386;2023-05-14T03:17:54;16.40;;;13.73;;
14472;SDS011;7322;50.872;4.386;2023-05-14T03:20:22;15.77;;;14.03;;
14472;SDS011;7322;50.872;4.386;2023-05-14T03:22:52;15.70;;;13.73;;
14472;SDS011;7322;50.872;4.386;2023-05-14T03:25:20;17.33;;;14.77;;
14472;SDS011;7322;50.872;4.386;2023-05-14T03:28:01;16.33;;;14.63;;
14472;SDS011;7322;50.872;4.386;2023-05-14T03:30:41;15.38;;;13.77;;
14472;SDS011;7322;50.872;4.386;2023-05-14T03:35:42;15.65;;;14.05;;
14472;SDS011;7322;50.872;4.386;2023-05-14T03:38:10;15.57;;;13.98;;
14472;SDS011;7322;50.872;4.386;2023-05-14T03:43:30;15.75;;;14.15;;
14472;SDS011;7322;50.872;4.386;2023-05-14T03:51:09;15.88;;;13.93;;
14472;SDS011;7322;50.872;4.386;2023-05-14T03:53:36;15.73;;;14.20;;
14472;SDS011;7322;50.872;4.386;2023-05-14T03:56:05;16.35;;;14.63;;
14472;SDS011;7322;50.872;4.386;2023-05-14T03:58:50;14.80;;;13.20;;
14472;SDS011;7322;50.872;4.386;2023-05-14T04:01:17;16.98;;;14.35;;
14472;SDS011;7322;50.872;4.386;2023-05-14T04:03:57;16.55;;;14.07;;
14472;SDS011;7322;50.872;4.386;2023-05-14T04:06:40;16.48;;;14.30;;
14472;SDS011;7322;50.872;4.386;2023-05-14T04:09:07;15.60;;;13.93;;
14472;SDS011;7322;50.872;4.386;2023-05-14T04:11:37;15.88;;;14.23;;
14472;SDS011;7322;50.872;4.386;2023-05-14T04:14:06;16.27;;;14.30;;
14472;SDS011;7322;50.872;4.386;2023-05-14T04:16:34;16.15;;;14.48;;
14472;SDS011;7322;50.872;4.386;2023-05-14T04:19:07;17.45;;;15.40;;
14472;SDS011;7322;50.872;4.386;2023-05-14T04:21:40;16.73;;;15.00;;
14472;SDS011;7322;50.872;4.386;2023-05-14T04:24:09;17.15;;;14.63;;
14472;SDS011;7322;50.872;4.386;2023-05-14T04:26:36;17.90;;;15.82;;
14472;SDS011;7322;50.872;4.386;2023-05-14T04:29:08;16.95;;;14.98;;
14472;SDS011;7322;50.872;4.386;2023-05-14T04:31:36;16.10;;;13.88;;
14472;SDS011;7322;50.872;4.386;2023-05-14T04:36:46;17.00;;;14.88;;
14472;SDS011;7322;50.872;4.386;2023-05-14T04:39:19;15.75;;;14.00;;
14472;SDS011;7322;50.872;4.386;2023-05-14T04:41:48;17.25;;;15.05;;
14472;SDS011;7322;50.872;4.386;2023-05-14T04:44:18;16.90;;;15.10;;
14472;SDS011;7322;50.872;4.386;2023-05-14T04:47:01;17.98;;;15.48;;
14472;SDS011;7322;50.872;4.386;2023-05-14T04:52:04;17.30;;;15.50;;
14472;SDS011;7322;50.872;4.386;2023-05-14T04:54:39;17.48;;;14.85;;
14472;SDS011;7322;50.872;4.386;2023-05-14T04:57:07;17.60;;;15.80;;
14472;SDS011;7322;50.872;4.386;2023-05-14T04:59:40;18.48;;;15.98;;
14472;SDS011;7322;50.872;4.386;2023-05-14T05:02:08;17.83;;;15.95;;
14472;SDS011;7322;50.872;4.386;2023-05-14T05:04:36;18.20;;;16.30;;
14472;SDS011;7322;50.872;4.386;2023-05-14T05:09:50;19.50;;;16.33;;
14472;SDS011;7322;50.872;4.386;2023-05-14T05:12:17;19.20;;;16.05;;
14472;SDS011;7322;50.872;4.386;2023-05-14T05:14:54;17.00;;;15.27;;
14472;SDS011;7322;50.872;4.386;2023-05-14T05:17:28;17.88;;;15.77;;
14472;SDS011;7322;50.872;4.386;2023-05-14T05:19:55;17.38;;;15.57;;
14472;SDS011;7322;50.872;4.386;2023-05-14T05:22:23;17.08;;;15.30;;
14472;SDS011;7322;50.872;4.386;2023-05-14T05:24:51;17.65;;;15.50;;
14472;SDS011;7322;50.872;4.386;2023-05-14T05:30:21;17.10;;;15.30;;
14472;SDS011;7322;50.872;4.386;2023-05-14T05:35:45;17.75;;;15.50;;
14472;SDS011;7322;50.872;4.386;2023-05-14T05:38:20;18.95;;;15.10;;
14472;SDS011;7322;50.872;4.386;2023-05-14T05:41:01;16.58;;;14.95;;
14472;SDS011;7322;50.872;4.386;2023-05-14T05:43:46;18.17;;;14.75;;
14472;SDS011;7322;50.872;4.386;2023-05-14T05:46:23;16.98;;;15.18;;
14472;SDS011;7322;50.872;4.386;2023-05-14T05:48:51;16.25;;;14.52;;
14472;SDS011;7322;50.872;4.386;2023-05-14T05:51:21;17.85;;;16.05;;
14472;SDS011;7322;50.872;4.386;2023-05-14T05:53:48;16.73;;;14.95;;
14472;SDS011;7322;50.872;4.386;2023-05-14T05:56:23;18.25;;;16.25;;
14472;SDS011;7322;50.872;4.386;2023-05-14T06:01:53;18.42;;;16.23;;
14472;SDS011;7322;50.872;4.386;2023-05-14T06:04:23;16.98;;;15.25;;
14472;SDS011;7322;50.872;4.386;2023-05-14T06:06:50;19.42;;;17.10;;
14472;SDS011;7322;50.872;4.386;2023-05-14T06:09:18;18.20;;;16.17;;
14472;SDS011;7322;50.872;4.386;2023-05-14T06:11:46;17.83;;;15.98;;
14472;SDS011;7322;50.872;4.386;2023-05-14T06:14:13;17.23;;;15.15;;
14472;SDS011;7322;50.872;4.386;2023-05-14T06:16:44;17.65;;;15.85;;
14472;SDS011;7322;50.872;4.386;2023-05-14T06:19:13;18.20;;;16.30;;
14472;SDS011;7322;50.872;4.386;2023-05-14T06:21:40;18.45;;;16.55;;
14472;SDS011;7322;50.872;4.386;2023-05-14T06:24:23;18.45;;;16.55;;
14472;SDS011;7322;50.872;4.386;2023-05-14T06:26:51;18.60;;;16.63;;
14472;SDS011;7322;50.872;4.386;2023-05-14T06:29:24;18.17;;;16.25;;
14472;SDS011;7322;50.872;4.386;2023-05-14T06:31:53;17.52;;;15.77;;
14472;SDS011;7322;50.872;4.386;2023-05-14T06:34:25;19.13;;;17.02;;
14472;SDS011;7322;50.872;4.386;2023-05-14T06:37:04;19.35;;;17.33;;
14472;SDS011;7322;50.872;4.386;2023-05-14T06:39:31;18.98;;;16.13;;
14472;SDS011;7322;50.872;4.386;2023-05-14T06:41:59;17.45;;;15.65;;
14472;SDS011;7322;50.872;4.386;2023-05-14T06:44:27;17.33;;;15.48;;
14472;SDS011;7322;50.872;4.386;2023-05-14T06:46:56;17.70;;;15.90;;
14472;SDS011;7322;50.872;4.386;2023-05-14T06:49:27;19.67;;;16.90;;
14472;SDS011;7322;50.872;4.386;2023-05-14T06:52:00;18.92;;;15.75;;
14472;SDS011;7322;50.872;4.386;2023-05-14T06:54:31;18.98;;;16.95;;
14472;SDS011;7322;50.872;4.386;2023-05-14T06:56:58;21.33;;;17.70;;
14472;SDS011;7322;50.872;4.386;2023-05-14T06:59:26;18.42;;;16.48;;
14472;SDS011;7322;50.872;4.386;2023-05-14T07:01:57;18.85;;;16.83;;
14472;SDS011;7322;50.872;4.386;2023-05-14T07:04:27;18.20;;;16.27;;
14472;SDS011;7322;50.872;4.386;2023-05-14T07:06:54;19.10;;;17.10;;
14472;SDS011;7322;50.872;4.386;2023-05-14T07:12:11;16.45;;;14.82;;
14472;SDS011;7322;50.872;4.386;2023-05-14T07:14:54;21.23;;;17.08;;
14472;SDS011;7322;50.872;4.386;2023-05-14T07:20:14;17.73;;;15.80;;
14472;SDS011;7322;50.872;4.386;2023-05-14T07:22:43;17.88;;;16.08;;
14472;SDS011;7322;50.872;4.386;2023-05-14T07:25:15;17.92;;;16.15;;
14472;SDS011;7322;50.872;4.386;2023-05-14T07:27:44;17.55;;;15.30;;
14472;SDS011;7322;50.872;4.386;2023-05-14T07:30:18;18.50;;;16.58;;
14472;SDS011;7322;50.872;4.386;2023-05-14T07:32:52;17.85;;;15.95;;
14472;SDS011;7322;50.872;4.386;2023-05-14T07:35:20;17.20;;;15.40;;
14472;SDS011;7322;50.872;4.386;2023-05-14T07:37:54;16.58;;;14.95;;
14472;SDS011;7322;50.872;4.386;2023-05-14T07:40:22;17.25;;;15.45;;
14472;SDS011;7322;50.872;4.386;2023-05-14T07:46:05;17.80;;;16.08;;
14472;SDS011;7322;50.872;4.386;2023-05-14T07:51:32;16.90;;;15.20;;
14472;SDS011;7322;50.872;4.386;2023-05-14T07:54:16;17.90;;;16.10;;
14472;SDS011;7322;50.872;4.386;2023-05-14T07:56:51;17.48;;;15.68;;
14472;SDS011;7322;50.872;4.386;2023-05-14T08:02:04;16.98;;;15.27;;
14472;SDS011;7322;50.872;4.386;2023-05-14T08:07:38;17.25;;;15.50;;
14472;SDS011;7322;50.872;4.386;2023-05-14T08:10:06;16.42;;;14.73;;
14472;SDS011;7322;50.872;4.386;2023-05-14T08:12:46;18.42;;;16.52;;
14472;SDS011;7322;50.872;4.386;2023-05-14T08:17:46;18.65;;;16.08;;
14472;SDS011;7322;50.872;4.386;2023-05-14T08:20:14;18.02;;;16.05;;
14472;SDS011;7322;50.872;4.386;2023-05-14T08:22:43;17.38;;;15.43;;
14472;SDS011;7322;50.872;4.386;2023-05-14T08:25:12;17.27;;;15.48;;
14472;SDS011;7322;50.872;4.386;2023-05-14T08:27:40;18.13;;;16.38;;
14472;SDS011;7322;50.872;4.386;2023-05-14T08:30:16;17.05;;;15.27;;
14472;SDS011;7322;50.872;4.386;2023-05-14T08:32:43;18.38;;;15.65;;
14472;SDS011;7322;50.872;4.386;2023-05-14T08:37:56;18.17;;;15.38;;
14472;SDS011;7322;50.872;4.386;2023-05-14T08:40:23;18.00;;;14.65;;
14472;SDS011;7322;50.872;4.386;2023-05-14T08:42:50;16.95;;;15.15;;
14472;SDS011;7322;50.872;4.386;2023-05-14T08:45:19;16.13;;;14.52;;
14472;SDS011;7322;50.872;4.386;2023-05-14T08:47:51;15.75;;;13.88;;
14472;SDS011;7322;50.872;4.386;2023-05-14T08:50:22;15.82;;;14.00;;
14472;SDS011;7322;50.872;4.386;2023-05-14T08:52:51;15.98;;;13.60;;
14472;SDS011;7322;50.872;4.386;2023-05-14T08:55:34;19.30;;;15.52;;
14472;SDS011;7322;50.872;4.386;2023-05-14T08:58:02;18.73;;;14.63;;
14472;SDS011;7322;50.872;4.386;2023-05-14T09:00:34;19.40;;;14.60;;
14472;SDS011;7322;50.872;4.386;2023-05-14T09:03:01;21.33;;;14.43;;
14472;SDS011;7322;50.872;4.386;2023-05-14T09:05:38;20.80;;;15.55;;
14472;SDS011;7322;50.872;4.386;2023-05-14T09:08:07;15.80;;;13.55;;
14472;SDS011;7322;50.872;4.386;2023-05-14T09:10:36;18.27;;;15.10;;
14472;SDS011;7322;50.872;4.386;2023-05-14T09:13:16;20.02;;;15.38;;
14472;SDS011;7322;50.872;4.386;2023-05-14T09:18:24;15.93;;;13.80;;
14472;SDS011;7322;50.872;4.386;2023-05-14T09:20:59;14.65;;;13.10;;
14472;SDS011;7322;50.872;4.386;2023-05-14T09:23:36;14.50;;;12.98;;
14472;SDS011;7322;50.872;4.386;2023-05-14T09:31:42;13.98;;;12.68;;
14472;SDS011;7322;50.872;4.386;2023-05-14T09:34:09;14.40;;;12.90;;
14472;SDS011;7322;50.872;4.386;2023-05-14T09:36:46;15.60;;;13.45;;
14472;SDS011;7322;50.872;4.386;2023-05-14T09:39:16;17.48;;;12.77;;
14472;SDS011;7322;50.872;4.386;2023-05-14T09:41:53;13.98;;;12.48;;
14472;SDS011;7322;50.872;4.386;2023-05-14T09:44:31;14.63;;;13.13;;
14472;SDS011;7322;50.872;4.386;2023-05-14T09:47:06;15.07;;;13.13;;
14472;SDS011;7322;50.872;4.386;2023-05-14T09:49:39;13.65;;;12.23;;
14472;SDS011;7322;50.872;4.386;2023-05-14T09:52:17;14.07;;;12.60;;
14472;SDS011;7322;50.872;4.386;2023-05-14T09:54:46;14.38;;;12.23;;
14472;SDS011;7322;50.872;4.386;2023-05-14T09:57:17;14.52;;;13.02;;
14472;SDS011;7322;50.872;4.386;2023-05-14T09:59:46;13.75;;;12.45;;
14472;SDS011;7322;50.872;4.386;2023-05-14T10:02:15;13.85;;;12.43;;
14472;SDS011;7322;50.872;4.386;2023-05-14T10:04:49;14.15;;;12.65;;
14472;SDS011;7322;50.872;4.386;2023-05-14T10:07:21;13.80;;;12.50;;
14472;SDS011;7322;50.872;4.386;2023-05-14T10:10:06;13.13;;;11.73;;
14472;SDS011;7322;50.872;4.386;2023-05-14T10:12:41;13.23;;;11.93;;
14472;SDS011;7322;50.872;4.386;2023-05-14T10:15:21;13.55;;;12.20;;
14472;SDS011;7322;50.872;4.386;2023-05-14T10:17:55;13.07;;;11.88;;
14472;SDS011;7322;50.872;4.386;2023-05-14T10:20:28;13.77;;;12.18;;
14472;SDS011;7322;50.872;4.386;2023-05-14T10:22:58;13.50;;;12.20;;
14472;SDS011;7322;50.872;4.386;2023-05-14T10:25:27;14.90;;;12.43;;
14472;SDS011;7322;50.872;4.386;2023-05-14T10:27:58;13.13;;;11.90;;
14472;SDS011;7322;50.872;4.386;2023-05-14T10:33:16;13.73;;;12.43;;
14472;SDS011;7322;50.872;4.386;2023-05-14T10:41:20;15.18;;;13.75;;
14472;SDS011;7322;50.872;4.386;2023-05-14T10:44:07;13.63;;;12.32;;
14472;SDS011;7322;50.872;4.386;2023-05-14T10:49:20;13.30;;;12.00;;
14472;SDS011;7322;50.872;4.386;2023-05-14T10:51:58;13.93;;;12.43;;
14472;SDS011;7322;50.872;4.386;2023-05-14T10:54:44;14.75;;;13.25;;
14472;SDS011;7322;50.872;4.386;2023-05-14T10:57:17;13.65;;;12.35;;
14472;SDS011;7322;50.872;4.386;2023-05-14T10:59:48;13.98;;;12.65;;
14472;SDS011;7322;50.872;4.386;2023-05-14T11:02:23;14.07;;;12.65;;
14472;SDS011;7322;50.872;4.386;2023-05-14T11:04:51;16.45;;;13.13;;
14472;SDS011;7322;50.872;4.386;2023-05-14T11:07:28;14.82;;;13.25;;
14472;SDS011;7322;50.872;4.386;2023-05-14T11:10:14;15.18;;;13.60;;
14472;SDS011;7322;50.872;4.386;2023-05-14T11:12:45;15.55;;;13.98;;
14472;SDS011;7322;50.872;4.386;2023-05-14T11:18:11;15.00;;;13.48;;
14472;SDS011;7322;50.872;4.386;2023-05-14T11:20:46;15.93;;;14.00;;
14472;SDS011;7322;50.872;4.386;2023-05-14T11:23:14;15.95;;;14.25;;
14472;SDS011;7322;50.872;4.386;2023-05-14T11:25:46;16.58;;;14.77;;
14472;SDS011;7322;50.872;4.386;2023-05-14T11:28:21;18.65;;;14.65;;
14472;SDS011;7322;50.872;4.386;2023-05-14T11:30:55;16.40;;;14.68;;
14472;SDS011;7322;50.872;4.386;2023-05-14T11:33:24;21.80;;;15.50;;
14472;SDS011;7322;50.872;4.386;2023-05-14T11:35:55;15.63;;;13.77;;
14472;SDS011;7322;50.872;4.386;2023-05-14T11:38:23;17.55;;;14.48;;
14472;SDS011;7322;50.872;4.386;2023-05-14T11:43:47;16.27;;;14.60;;
14472;SDS011;7322;50.872;4.386;2023-05-14T11:46:18;17.38;;;13.82;;
14472;SDS011;7322;50.872;4.386;2023-05-14T11:48:46;17.23;;;13.52;;
14472;SDS011;7322;50.872;4.386;2023-05-14T11:51:14;15.32;;;13.85;;
14472;SDS011;7322;50.872;4.386;2023-05-14T11:53:43;17.23;;;13.93;;
14472;SDS011;7322;50.872;4.386;2023-05-14T11:56:27;15.30;;;13.70;;
14472;SDS011;7322;50.872;4.386;2023-05-14T12:01:44;15.80;;;13.70;;
14472;SDS011;7322;50.872;4.386;2023-05-14T12:04:16;16.15;;;14.38;;
14472;SDS011;7322;50.872;4.386;2023-05-14T12:07:06;16.42;;;14.13;;
14472;SDS011;7322;50.872;4.386;2023-05-14T12:09:41;15.02;;;13.43;;
14472;SDS011;7322;50.872;4.386;2023-05-14T12:12:16;15.80;;;13.88;;
14472;SDS011;7322;50.872;4.386;2023-05-14T12:14:46;15.68;;;13.75;;
14472;SDS011;7322;50.872;4.386;2023-05-14T12:17:18;16.30;;;13.30;;
14472;SDS011;7322;50.872;4.386;2023-05-14T12:19:48;17.15;;;13.57;;
14472;SDS011;7322;50.872;4.386;2023-05-14T12:22:16;16.15;;;13.25;;
14472;SDS011;7322;50.872;4.386;2023-05-14T12:24:51;14.50;;;12.95;;
14472;SDS011;7322;50.872;4.386;2023-05-14T12:27:20;14.80;;;13.15;;
14472;SDS011;7322;50.872;4.386;2023-05-14T12:29:48;14.25;;;12.80;;
14472;SDS011;7322;50.872;4.386;2023-05-14T12:32:27;13.65;;;12.25;;
14472;SDS011;7322;50.872;4.386;2023-05-14T12:34:54;18.08;;;13.13;;
14472;SDS011;7322;50.872;4.386;2023-05-14T12:37:25;14.40;;;12.95;;
14472;SDS011;7322;50.872;4.386;2023-05-14T12:39:53;13.45;;;12.13;;
14472;SDS011;7322;50.872;4.386;2023-05-14T12:42:20;15.45;;;12.60;;
14472;SDS011;7322;50.872;4.386;2023-05-14T12:44:53;13.88;;;12.25;;
14472;SDS011;7322;50.872;4.386;2023-05-14T12:47:20;14.82;;;13.10;;
14472;SDS011;7322;50.872;4.386;2023-05-14T12:49:53;13.75;;;11.68;;
14472;SDS011;7322;50.872;4.386;2023-05-14T12:52:20;14.23;;;11.73;;
14472;SDS011;7322;50.872;4.386;2023-05-14T12:54:47;13.93;;;12.52;;
14472;SDS011;7322;50.872;4.386;2023-05-14T12:57:16;14.25;;;11.90;;
14472;SDS011;7322;50.872;4.386;2023-05-14T12:59:49;13.95;;;12.60;;
14472;SDS011;7322;50.872;4.386;2023-05-14T13:02:16;13.45;;;12.13;;
14472;SDS011;7322;50.872;4.386;2023-05-14T13:04:44;13.32;;;12.02;;
14472;SDS011;7322;50.872;4.386;2023-05-14T13:07:13;13.23;;;11.93;;
14472;SDS011;7322;50.872;4.386;2023-05-14T13:09:41;13.82;;;12.40;;
14472;SDS011;7322;50.872;4.386;2023-05-14T13:12:09;14.02;;;11.73;;
14472;SDS011;7322;50.872;4.386;2023-05-14T13:14:41;14.65;;;12.20;;
14472;SDS011;7322;50.872;4.386;2023-05-14T13:17:16;14.68;;;11.98;;
14472;SDS011;7322;50.872;4.386;2023-05-14T13:19:46;13.32;;;11.93;;
14472;SDS011;7322;50.872;4.386;2023-05-14T13:24:51;13.35;;;11.38;;
14472;SDS011;7322;50.872;4.386;2023-05-14T13:30:10;13.25;;;11.95;;
14472;SDS011;7322;50.872;4.386;2023-05-14T13:32:37;12.93;;;11.68;;
14472;SDS011;7322;50.872;4.386;2023-05-14T13:35:05;12.43;;;11.13;;
14472;SDS011;7322;50.872;4.386;2023-05-14T13:40:16;12.73;;;11.15;;
14472;SDS011;7322;50.872;4.386;2023-05-14T13:42:55;13.05;;;11.68;;
14472;SDS011;7322;50.872;4.386;2023-05-14T13:45:24;12.90;;;11.55;;
14472;SDS011;7322;50.872;4.386;2023-05-14T13:48:06;12.98;;;11.68;;
14472;SDS011;7322;50.872;4.386;2023-05-14T13:50:41;14.15;;;11.57;;
14472;SDS011;7322;50.872;4.386;2023-05-14T13:53:12;11.90;;;10.57;;
14472;SDS011;7322;50.872;4.386;2023-05-14T13:55:46;12.15;;;10.88;;
14472;SDS011;7322;50.872;4.386;2023-05-14T14:03:45;11.80;;;10.55;;
14472;SDS011;7322;50.872;4.386;2023-05-14T14:06:18;12.30;;;10.40;;
14472;SDS011;7322;50.872;4.386;2023-05-14T14:08:47;12.35;;;11.02;;
14472;SDS011;7322;50.872;4.386;2023-05-14T14:11:16;12.55;;;11.23;;
14472;SDS011;7322;50.872;4.386;2023-05-14T14:16:41;13.05;;;11.65;;
14472;SDS011;7322;50.872;4.386;2023-05-14T14:19:08;12.68;;;11.35;;
14472;SDS011;7322;50.872;4.386;2023-05-14T14:21:35;12.05;;;10.85;;
14472;SDS011;7322;50.872;4.386;2023-05-14T14:24:07;12.63;;;11.15;;
14472;SDS011;7322;50.872;4.386;2023-05-14T14:29:24;11.90;;;10.70;;
14472;SDS011;7322;50.872;4.386;2023-05-14T14:31:59;11.70;;;10.57;;
14472;SDS011;7322;50.872;4.386;2023-05-14T14:34:30;12.18;;;10.90;;
14472;SDS011;7322;50.872;4.386;2023-05-14T14:36:57;11.73;;;10.60;;
14472;SDS011;7322;50.872;4.386;2023-05-14T14:39:33;12.70;;;11.38;;
14472;SDS011;7322;50.872;4.386;2023-05-14T14:42:00;11.30;;;10.18;;
14472;SDS011;7322;50.872;4.386;2023-05-14T14:44:27;11.55;;;10.52;;
14472;SDS011;7322;50.872;4.386;2023-05-14T14:46:55;11.75;;;10.18;;
14472;SDS011;7322;50.872;4.386;2023-05-14T14:49:25;12.15;;;11.05;;
14472;SDS011;7322;50.872;4.386;2023-05-14T14:51:53;11.52;;;10.30;;
14472;SDS011;7322;50.872;4.386;2023-05-14T14:54:21;11.75;;;10.45;;
14472;SDS011;7322;50.872;4.386;2023-05-14T14:56:54;10.80;;;9.80;;
14472;SDS011;7322;50.872;4.386;2023-05-14T15:02:14;10.77;;;9.63;;
14472;SDS011;7322;50.872;4.386;2023-05-14T15:04:46;13.05;;;10.13;;
14472;SDS011;7322;50.872;4.386;2023-05-14T15:07:21;11.60;;;10.38;;
14472;SDS011;7322;50.872;4.386;2023-05-14T15:09:48;12.35;;;10.32;;
14472;SDS011;7322;50.872;4.386;2023-05-14T15:12:17;12.13;;;9.93;;
14472;SDS011;7322;50.872;4.386;2023-05-14T15:14:46;11.27;;;10.18;;
14472;SDS011;7322;50.872;4.386;2023-05-14T15:17:13;11.70;;;9.25;;
14472;SDS011;7322;50.872;4.386;2023-05-14T15:19:40;10.95;;;9.93;;
14472;SDS011;7322;50.872;4.386;2023-05-14T15:24:54;11.25;;;10.00;;
14472;SDS011;7322;50.872;4.386;2023-05-14T15:27:32;11.82;;;9.23;;
14472;SDS011;7322;50.872;4.386;2023-05-14T15:29:59;11.23;;;9.20;;
14472;SDS011;7322;50.872;4.386;2023-05-14T15:32:33;11.20;;;9.80;;
14472;SDS011;7322;50.872;4.386;2023-05-14T15:37:36;10.43;;;8.68;;
14472;SDS011;7322;50.872;4.386;2023-05-14T15:40:10;12.27;;;9.05;;
14472;SDS011;7322;50.872;4.386;2023-05-14T15:42:47;9.52;;;7.97;;
14472;SDS011;7322;50.872;4.386;2023-05-14T15:45:14;10.77;;;8.48;;
14472;SDS011;7322;50.872;4.386;2023-05-14T15:47:42;9.43;;;8.43;;
14472;SDS011;7322;50.872;4.386;2023-05-14T15:50:19;10.65;;;7.95;;
14472;SDS011;7322;50.872;4.386;2023-05-14T15:55:41;9.27;;;8.15;;
14472;SDS011;7322;50.872;4.386;2023-05-14T15:58:10;10.60;;;7.75;;
14472;SDS011;7322;50.872;4.386;2023-05-14T16:03:21;9.48;;;8.48;;
14472;SDS011;7322;50.872;4.386;2023-05-14T16:06:02;11.18;;;8.88;;
14472;SDS011;7322;50.872;4.386;2023-05-14T16:08:33;12.77;;;8.90;;
14472;SDS011;7322;50.872;4.386;2023-05-14T16:11:01;13.23;;;9.40;;
14472;SDS011;7322;50.872;4.386;2023-05-14T16:13:37;11.13;;;8.55;;
14472;SDS011;7322;50.872;4.386;2023-05-14T16:16:10;10.40;;;8.27;;
14472;SDS011;7322;50.872;4.386;2023-05-14T16:18:47;10.73;;;8.15;;
14472;SDS011;7322;50.872;4.386;2023-05-14T16:21:16;9.50;;;8.02;;
14472;SDS011;7322;50.872;4.386;2023-05-14T16:26:29;8.85;;;7.88;;
14472;SDS011;7322;50.872;4.386;2023-05-14T16:28:57;9.40;;;7.18;;
14472;SDS011;7322;50.872;4.386;2023-05-14T16:31:24;11.25;;;7.68;;
14472;SDS011;7322;50.872;4.386;2023-05-14T16:33:55;9.55;;;7.72;;
14472;SDS011;7322;50.872;4.386;2023-05-14T16:36:24;8.95;;;7.13;;
14472;SDS011;7322;50.872;4.386;2023-05-14T16:38:53;9.45;;;7.40;;
14472;SDS011;7322;50.872;4.386;2023-05-14T16:41:20;9.73;;;7.03;;
14472;SDS011;7322;50.872;4.386;2023-05-14T16:43:49;12.98;;;7.22;;
14472;SDS011;7322;50.872;4.386;2023-05-14T16:46:19;8.27;;;6.85;;
14472;SDS011;7322;50.872;4.386;2023-05-14T16:48:55;8.05;;;6.70;;
14472;SDS011;7322;50.872;4.386;2023-05-14T16:51:29;12.63;;;6.78;;
14472;SDS011;7322;50.872;4.386;2023-05-14T16:54:02;9.05;;;6.78;;
14472;SDS011;7322;50.872;4.386;2023-05-14T16:56:41;11.80;;;6.80;;
14472;SDS011;7322;50.872;4.386;2023-05-14T17:01:56;12.00;;;7.00;;
14472;SDS011;7322;50.872;4.386;2023-05-14T17:04:23;9.27;;;6.60;;
14472;SDS011;7322;50.872;4.386;2023-05-14T17:06:50;8.30;;;6.70;;
14472;SDS011;7322;50.872;4.386;2023-05-14T17:09:18;9.02;;;6.43;;
14472;SDS011;7322;50.872;4.386;2023-05-14T17:11:45;8.13;;;6.60;;
14472;SDS011;7322;50.872;4.386;2023-05-14T17:14:11;9.80;;;6.75;;
14472;SDS011;7322;50.872;4.386;2023-05-14T17:16:38;8.43;;;6.40;;
14472;SDS011;7322;50.872;4.386;2023-05-14T17:19:07;9.82;;;6.28;;
14472;SDS011;7322;50.872;4.386;2023-05-14T17:21:35;9.68;;;6.88;;
14472;SDS011;7322;50.872;4.386;2023-05-14T17:24:03;9.45;;;6.88;;
14472;SDS011;7322;50.872;4.386;2023-05-14T17:26:31;8.73;;;6.70;;
14472;SDS011;7322;50.872;4.386;2023-05-14T17:28:59;9.50;;;7.00;;
14472;SDS011;7322;50.872;4.386;2023-05-14T17:31:28;8.32;;;6.80;;